Kenneth Carl — WDF8246 — position and weather

sailwx.info

Track history (hours):
 
Tides and Currents Weather Stations Pressure Air Temp Water Temp Dewpoint Dewpoint Depression Visibility Wind Speed Wind Dir Waves Ship Positions

Kenneth Carl

Owner: So. Cal. Ship Services, Inc., San Pedro, CA. More information available from US FCC via Universal Licensing System and Coast Guard Vessel Documentation Center.

Last reported at 2014-Dec-22 20:33 UTC. Time now 2014-Dec-22 21:22 UTC.
Position N 33°35' W 118°08'.

Length 31 m; draft 3 m.

Type: Ship. MMSI: 367492920.

Date/timePositionNaut miles runAvg speedWind from/ knotsBaromVisibWave heightAir tempDewpointWater temp
2014-Dec-22 20:33N 33°35' W 118°08'0 0.1
2014-Dec-22 19:33N 33°35' W 118°08'0 0.0
2014-Dec-22 18:33N 33°35' W 118°08'0 0.0
2014-Dec-22 17:33N 33°35' W 118°08'0 0.2
2014-Dec-22 16:22N 33°35' W 118°08'8 9.8
2014-Dec-22 15:32N 33°42' W 118°14'3 0.4
2014-Dec-22 06:20N 33°44' W 118°16'8 8.9
2014-Dec-22 05:27N 33°38' W 118°10'4 4.1
2014-Dec-22 04:32N 33°35' W 118°08'12 3.5
2014-Dec-22 01:12N 33°44' W 118°16'0 0.0
2014-Dec-22 00:22N 33°44' W 118°16'  
2014-Dec-15 09:08N 33°35' W 118°08'  
Track history (hours):
 
Tides and Currents Weather Stations Pressure Air Temp Water Temp Dewpoint Dewpoint Depression Visibility Wind Speed Wind Dir Waves Ship Positions

Kenneth Carl

Owner: So. Cal. Ship Services, Inc., San Pedro, CA. More information available from US FCC via Universal Licensing System and Coast Guard Vessel Documentation Center.

Last reported at 2014-Dec-22 20:33 UTC. Time now 2014-Dec-22 21:22 UTC.
Position N 33°35' W 118°08'.

Length 31 m; draft 3 m.

Type: Ship. MMSI: 367492920.

Date/timePositionNaut miles runAvg speedWind from/ knotsBaromVisibWave heightAir tempDewpointWater temp
2014-Dec-22 20:33N 33°35' W 118°08'0 0.1
2014-Dec-22 19:33N 33°35' W 118°08'0 0.0
2014-Dec-22 18:33N 33°35' W 118°08'0 0.0
2014-Dec-22 17:33N 33°35' W 118°08'0 0.2
2014-Dec-22 16:22N 33°35' W 118°08'8 9.8
2014-Dec-22 15:32N 33°42' W 118°14'3 0.4
2014-Dec-22 06:20N 33°44' W 118°16'8 8.9
2014-Dec-22 05:27N 33°38' W 118°10'4 4.1
2014-Dec-22 04:32N 33°35' W 118°08'12 3.5
2014-Dec-22 01:12N 33°44' W 118°16'0 0.0
2014-Dec-22 00:22N 33°44' W 118°16'  
2014-Dec-15 09:08N 33°35' W 118°08'  

Dump ship's entire track history